createdAt,value
2022-12-16T00:00:08.622Z,11.33
2022-12-16T00:02:35.461Z,11.77
2022-12-16T00:05:02.360Z,10.93
2022-12-16T00:07:29.043Z,11.27
2022-12-16T00:09:55.755Z,10.90
2022-12-16T00:12:22.753Z,11.03
2022-12-16T00:14:49.503Z,9.60
2022-12-16T00:17:17.240Z,10.60
2022-12-16T00:19:44.017Z,9.77
2022-12-16T00:22:10.696Z,10.23
2022-12-16T00:24:37.620Z,11.10
2022-12-16T00:27:04.495Z,10.17
2022-12-16T00:29:31.246Z,9.53
2022-12-16T00:31:58.071Z,9.53
2022-12-16T00:34:25.052Z,9.40
2022-12-16T00:36:52.367Z,9.53
2022-12-16T00:39:19.075Z,8.80
2022-12-16T00:41:47.662Z,9.53
2022-12-16T00:44:14.652Z,8.77
2022-12-16T00:46:41.352Z,9.10
2022-12-16T00:49:08.427Z,7.97
2022-12-16T00:51:35.158Z,7.90
2022-12-16T00:54:01.862Z,9.03
2022-12-16T00:56:28.561Z,8.87
2022-12-16T00:58:55.303Z,8.40
2022-12-16T01:01:22.363Z,7.93
2022-12-16T01:03:49.247Z,8.50
2022-12-16T01:06:17.452Z,8.30
2022-12-16T01:08:48.775Z,7.83
2022-12-16T01:11:18.576Z,7.63
2022-12-16T01:13:45.987Z,7.63
2022-12-16T01:16:12.747Z,7.73
2022-12-16T01:18:39.476Z,7.33
2022-12-16T01:21:08.638Z,6.77
2022-12-16T01:23:35.929Z,6.93
2022-12-16T01:26:03.562Z,6.90
2022-12-16T01:28:30.801Z,7.10
2022-12-16T01:31:01.607Z,6.77
2022-12-16T01:33:32.948Z,7.23
2022-12-16T01:36:07.916Z,7.30
2022-12-16T01:38:35.574Z,6.70
2022-12-16T01:41:03.001Z,7.00
2022-12-16T01:43:33.223Z,6.93
2022-12-16T01:46:06.836Z,6.93
2022-12-16T01:48:36.468Z,6.83
2022-12-16T01:51:10.801Z,6.23
2022-12-16T01:53:40.644Z,6.10
2022-12-16T01:56:07.839Z,6.63
2022-12-16T01:58:37.102Z,5.80
2022-12-16T02:01:04.850Z,6.10
2022-12-16T02:03:35.487Z,6.10
2022-12-16T02:06:05.450Z,6.27
2022-12-16T02:08:32.215Z,6.57
2022-12-16T02:11:19.903Z,6.33
2022-12-16T02:14:05.489Z,6.20
2022-12-16T02:17:00.815Z,6.50
2022-12-16T02:19:42.095Z,5.80
2022-12-16T02:22:27.305Z,5.57
2022-12-16T02:25:02.829Z,6.07
2022-12-16T02:27:44.382Z,5.90
2022-12-16T02:30:42.022Z,5.40
2022-12-16T02:33:26.705Z,6.50
2022-12-16T02:36:22.937Z,6.70
2022-12-16T02:38:56.773Z,6.50
2022-12-16T02:41:49.602Z,5.83
2022-12-16T02:44:18.442Z,6.23
2022-12-16T02:46:55.872Z,6.83
2022-12-16T02:49:22.541Z,5.87
2022-12-16T02:51:50.040Z,5.87
2022-12-16T02:54:18.872Z,6.33
2022-12-16T02:56:54.708Z,6.90
2022-12-16T03:01:55.718Z,6.17
2022-12-16T03:04:26.639Z,6.50
2022-12-16T03:06:55.799Z,6.13
2022-12-16T03:09:29.669Z,6.13
2022-12-16T03:11:57.691Z,6.70
2022-12-16T03:14:28.919Z,7.30
2022-12-16T03:16:56.628Z,6.80
2022-12-16T03:19:25.899Z,7.43
2022-12-16T03:22:03.613Z,7.17
2022-12-16T03:24:30.674Z,7.20
2022-12-16T03:27:14.993Z,7.50
2022-12-16T03:29:45.814Z,7.73
2022-12-16T03:32:21.481Z,7.60
2022-12-16T03:34:56.427Z,7.70
2022-12-16T03:37:27.747Z,8.20
2022-12-16T03:39:57.186Z,8.80
2022-12-16T03:42:24.919Z,8.27
2022-12-16T03:44:51.786Z,8.77
2022-12-16T03:47:23.471Z,8.43
2022-12-16T03:49:50.817Z,8.07
2022-12-16T03:52:17.534Z,7.83
2022-12-16T03:54:44.235Z,8.37
2022-12-16T03:57:15.322Z,8.13
2022-12-16T03:59:43.297Z,8.57
2022-12-16T04:02:10.121Z,8.63
2022-12-16T04:04:38.273Z,8.17
2022-12-16T04:07:20.244Z,7.93
2022-12-16T04:09:48.142Z,8.30
2022-12-16T04:12:33.604Z,8.87
2022-12-16T04:15:18.700Z,8.00
2022-12-16T04:18:05.600Z,7.83
2022-12-16T04:20:55.462Z,8.47
2022-12-16T04:23:42.960Z,8.20
2022-12-16T04:26:09.936Z,9.23
2022-12-16T04:28:36.887Z,9.20
2022-12-16T04:31:03.982Z,9.57
2022-12-16T04:33:49.407Z,8.93
2022-12-16T04:36:34.906Z,8.93
2022-12-16T04:39:20.360Z,8.40
2022-12-16T04:42:05.917Z,8.87
2022-12-16T04:44:51.080Z,8.47
2022-12-16T04:47:36.337Z,9.30
2022-12-16T04:50:21.779Z,8.57
2022-12-16T04:53:10.224Z,8.33
2022-12-16T04:56:00.591Z,11.07
2022-12-16T04:58:49.198Z,8.67
2022-12-16T05:01:34.692Z,9.40
2022-12-16T05:04:19.838Z,9.27
2022-12-16T05:07:05.337Z,8.67
2022-12-16T05:09:50.820Z,9.37
2022-12-16T05:12:36.248Z,8.63
2022-12-16T05:15:21.708Z,9.07
2022-12-16T05:18:07.061Z,9.43
2022-12-16T05:20:52.690Z,8.37
2022-12-16T05:23:38.088Z,9.40
2022-12-16T05:26:23.504Z,9.20
2022-12-16T05:29:19.644Z,8.57
2022-12-16T05:32:05.057Z,8.23
2022-12-16T05:34:50.430Z,8.87
2022-12-16T05:37:35.961Z,8.70
2022-12-16T05:40:21.321Z,8.37
2022-12-16T05:43:08.895Z,8.80
2022-12-16T05:45:56.439Z,8.27
2022-12-16T05:48:47.458Z,8.73
2022-12-16T05:51:33.123Z,8.23
2022-12-16T05:54:18.504Z,8.50
2022-12-16T05:57:03.730Z,8.17
2022-12-16T06:00:09.040Z,8.47
2022-12-16T06:02:54.342Z,8.20
2022-12-16T06:05:39.763Z,8.77
2022-12-16T06:08:25.120Z,7.87
2022-12-16T06:11:10.744Z,7.60
2022-12-16T06:13:56.302Z,8.00
2022-12-16T06:16:41.872Z,7.83
2022-12-16T06:19:27.394Z,7.73
2022-12-16T06:22:12.738Z,8.37
2022-12-16T06:24:58.241Z,7.23
2022-12-16T06:27:43.550Z,8.83
2022-12-16T06:30:29.399Z,7.93
2022-12-16T06:33:14.972Z,7.43
2022-12-16T06:36:00.333Z,7.37
2022-12-16T06:38:45.944Z,7.93
2022-12-16T06:41:48.137Z,7.90
2022-12-16T06:44:33.437Z,8.40
2022-12-16T06:47:18.976Z,8.20
2022-12-16T06:50:04.419Z,8.07
2022-12-16T06:52:49.938Z,8.37
2022-12-16T06:55:35.505Z,7.70
2022-12-16T06:58:21.211Z,8.77
2022-12-16T07:01:06.578Z,8.30
2022-12-16T07:03:51.892Z,8.80
2022-12-16T07:06:37.371Z,8.80
2022-12-16T07:09:22.856Z,8.57
2022-12-16T07:12:08.492Z,8.80
2022-12-16T07:14:53.805Z,8.53
2022-12-16T07:17:39.337Z,9.17
2022-12-16T07:20:25.462Z,8.33
2022-12-16T07:23:17.734Z,9.53
2022-12-16T07:26:05.187Z,8.43
2022-12-16T07:28:50.660Z,9.10
2022-12-16T07:31:36.245Z,9.40
2022-12-16T07:34:21.535Z,9.33
2022-12-16T07:37:06.978Z,9.80
2022-12-16T07:39:55.216Z,8.90
2022-12-16T07:42:41.606Z,9.80
2022-12-16T07:45:27.525Z,9.17
2022-12-16T07:48:13.312Z,9.70
2022-12-16T07:50:58.680Z,9.53
2022-12-16T07:53:44.133Z,9.70
2022-12-16T07:56:29.565Z,9.93
2022-12-16T07:59:15.178Z,9.83
2022-12-16T08:02:00.864Z,13.33
2022-12-16T08:04:46.149Z,10.10
2022-12-16T08:07:31.723Z,10.60
2022-12-16T08:10:17.281Z,10.10
2022-12-16T08:13:03.037Z,9.07
2022-12-16T08:15:48.394Z,10.13
2022-12-16T08:18:35.338Z,10.73
2022-12-16T08:21:20.878Z,9.93
2022-12-16T08:24:06.178Z,10.37
2022-12-16T08:26:51.783Z,10.23
2022-12-16T08:29:45.707Z,10.07
2022-12-16T08:32:32.625Z,9.70
2022-12-16T08:35:18.053Z,10.37
2022-12-16T08:38:05.480Z,10.10
2022-12-16T08:40:52.965Z,9.87
2022-12-16T08:43:40.805Z,10.27
2022-12-16T08:46:26.232Z,10.03
2022-12-16T08:49:11.692Z,11.10
2022-12-16T08:51:57.126Z,10.03
2022-12-16T08:54:42.708Z,9.77
2022-12-16T08:57:28.093Z,10.80
2022-12-16T09:02:53.939Z,9.63
2022-12-16T09:05:41.136Z,10.60
2022-12-16T09:08:26.589Z,10.20
2022-12-16T09:11:12.132Z,10.80
2022-12-16T09:13:57.370Z,9.93
2022-12-16T09:16:42.944Z,10.30
2022-12-16T09:19:29.421Z,10.90
2022-12-16T09:22:14.888Z,10.03
2022-12-16T09:25:00.252Z,10.30
2022-12-16T09:27:46.901Z,10.53
2022-12-16T09:30:32.256Z,9.93
2022-12-16T09:33:19.647Z,10.30
2022-12-16T09:36:05.046Z,11.03
2022-12-16T09:38:50.458Z,9.73
2022-12-16T09:41:45.163Z,10.83
2022-12-16T09:44:48.798Z,10.50
2022-12-16T09:47:41.622Z,10.00
2022-12-16T09:50:41.807Z,10.00
2022-12-16T09:53:33.341Z,10.30
2022-12-16T09:56:21.875Z,9.93
2022-12-16T09:59:21.463Z,10.97
2022-12-16T10:02:08.417Z,10.20
2022-12-16T10:04:54.153Z,9.60
2022-12-16T10:07:42.249Z,9.33
2022-12-16T10:10:44.560Z,9.53
2022-12-16T10:13:41.766Z,10.40
2022-12-16T10:16:42.299Z,9.97
2022-12-16T10:19:57.577Z,9.87
2022-12-16T10:23:29.183Z,8.87
2022-12-16T10:26:29.351Z,9.03
2022-12-16T10:29:31.410Z,9.90
2022-12-16T10:32:16.949Z,9.30
2022-12-16T10:35:02.911Z,9.20
2022-12-16T10:37:55.691Z,9.73
2022-12-16T10:40:45.582Z,9.40
2022-12-16T10:43:43.916Z,8.13
2022-12-16T10:46:37.472Z,8.97
2022-12-16T10:49:22.626Z,9.17
2022-12-16T10:52:09.214Z,8.47
2022-12-16T10:55:01.198Z,8.90
2022-12-16T10:58:13.277Z,9.30
2022-12-16T11:01:05.203Z,8.90
2022-12-16T11:03:54.526Z,9.80
2022-12-16T11:06:54.002Z,9.00
2022-12-16T11:09:50.107Z,8.90
2022-12-16T11:12:39.166Z,8.57
2022-12-16T11:15:53.328Z,8.73
2022-12-16T11:18:41.653Z,9.13
2022-12-16T11:21:40.402Z,9.20
2022-12-16T11:24:28.454Z,9.03
2022-12-16T11:27:16.049Z,9.47
2022-12-16T11:30:16.115Z,8.47
2022-12-16T11:33:13.997Z,8.90
2022-12-16T11:36:12.234Z,11.53
2022-12-16T11:39:03.271Z,9.00
2022-12-16T11:41:53.946Z,8.80
2022-12-16T11:45:08.493Z,8.97
2022-12-16T11:48:10.992Z,8.83
2022-12-16T11:51:09.341Z,9.67
2022-12-16T11:54:08.433Z,9.07
2022-12-16T11:56:57.724Z,8.77
2022-12-16T11:59:49.907Z,9.83
2022-12-16T12:02:57.251Z,9.10
2022-12-16T12:06:09.028Z,9.37
2022-12-16T12:09:08.889Z,8.93
2022-12-16T12:11:57.284Z,9.03
2022-12-16T12:14:58.149Z,8.87
2022-12-16T12:17:59.558Z,8.93
2022-12-16T12:21:19.720Z,8.10
2022-12-16T12:24:18.930Z,9.10
2022-12-16T12:27:19.939Z,8.63
2022-12-16T12:30:20.748Z,8.57
2022-12-16T12:33:40.465Z,8.37
2022-12-16T12:36:50.532Z,8.23
2022-12-16T12:40:01.725Z,10.20
2022-12-16T12:43:03.781Z,8.67
2022-12-16T12:46:36.591Z,8.33
2022-12-16T12:49:54.062Z,9.50
2022-12-16T12:53:09.341Z,9.37
2022-12-16T12:56:06.441Z,9.17
2022-12-16T12:58:54.585Z,9.23
2022-12-16T13:01:45.883Z,8.90
2022-12-16T13:04:35.578Z,9.37
2022-12-16T13:07:22.163Z,11.73
2022-12-16T13:10:31.033Z,10.03
2022-12-16T13:13:43.958Z,8.80
2022-12-16T13:16:31.521Z,9.17
2022-12-16T13:19:49.203Z,9.87
2022-12-16T13:22:54.211Z,10.30
2022-12-16T13:25:55.349Z,8.67
2022-12-16T13:28:50.471Z,8.90
2022-12-16T13:31:36.462Z,8.77
2022-12-16T13:34:33.990Z,8.80
2022-12-16T13:37:26.870Z,9.47
2022-12-16T13:40:21.029Z,9.57
2022-12-16T13:43:07.945Z,9.17
2022-12-16T13:45:59.366Z,8.63
2022-12-16T13:48:59.395Z,8.67
2022-12-16T13:51:56.653Z,8.80
2022-12-16T13:55:11.672Z,9.33
2022-12-16T13:58:01.167Z,8.97
2022-12-16T14:00:47.519Z,9.03
2022-12-16T14:03:40.938Z,8.93
2022-12-16T14:06:43.273Z,9.93
2022-12-16T14:09:54.877Z,9.90
2022-12-16T14:12:41.624Z,10.03
2022-12-16T14:15:43.107Z,9.03
2022-12-16T14:18:47.671Z,10.13
2022-12-16T14:21:38.520Z,10.07
2022-12-16T14:24:35.668Z,10.23
2022-12-16T14:27:29.738Z,10.53
2022-12-16T14:30:15.051Z,10.70
2022-12-16T14:33:00.583Z,10.80
2022-12-16T14:35:47.145Z,10.20
2022-12-16T14:38:47.413Z,10.33
2022-12-16T14:41:48.489Z,9.67
2022-12-16T14:44:37.189Z,11.57
2022-12-16T14:47:22.681Z,12.57
2022-12-16T14:50:10.668Z,11.80
2022-12-16T14:52:56.136Z,13.33
2022-12-16T14:55:53.220Z,13.97
2022-12-16T14:58:41.784Z,14.27
2022-12-16T15:01:39.524Z,15.80
2022-12-16T15:04:40.320Z,18.40
2022-12-16T15:07:32.092Z,17.97
2022-12-16T15:10:18.726Z,20.97
2022-12-16T15:13:07.787Z,20.47
2022-12-16T15:16:03.254Z,26.30
2022-12-16T15:18:58.729Z,24.50
2022-12-16T15:21:44.209Z,23.77
2022-12-16T15:24:36.518Z,22.10
2022-12-16T15:27:39.685Z,19.80
2022-12-16T15:30:50.015Z,18.83
2022-12-16T15:33:37.349Z,18.97
2022-12-16T15:36:24.379Z,20.00
2022-12-16T15:39:09.952Z,18.50
2022-12-16T15:41:56.175Z,19.37
2022-12-16T15:44:44.664Z,17.60
2022-12-16T15:47:51.978Z,18.23
2022-12-16T15:50:59.974Z,18.83
2022-12-16T15:53:49.505Z,20.60
2022-12-16T15:57:00.338Z,19.80
2022-12-16T15:59:52.023Z,19.70
2022-12-16T16:02:46.669Z,19.83
2022-12-16T16:05:33.164Z,23.60
2022-12-16T16:08:18.661Z,23.17
2022-12-16T16:11:04.207Z,21.70
2022-12-16T16:13:49.733Z,21.60
2022-12-16T16:16:35.854Z,22.00
2022-12-16T16:19:21.078Z,21.63
2022-12-16T16:22:06.610Z,22.90
2022-12-16T16:24:51.982Z,21.40
2022-12-16T16:27:37.933Z,21.37
2022-12-16T16:30:25.474Z,23.93
2022-12-16T16:33:11.084Z,23.13
2022-12-16T16:35:56.525Z,22.20
2022-12-16T16:38:41.828Z,24.53
2022-12-16T16:41:33.454Z,24.43
2022-12-16T16:44:19.949Z,24.00
2022-12-16T16:47:06.035Z,23.97
2022-12-16T16:49:59.873Z,24.33
2022-12-16T16:52:47.228Z,23.00
2022-12-16T16:55:37.603Z,23.33
2022-12-16T16:58:31.648Z,24.63
2022-12-16T17:01:17.103Z,24.07
2022-12-16T17:04:02.730Z,22.97
2022-12-16T17:06:48.388Z,24.47
2022-12-16T17:09:33.496Z,21.90
2022-12-16T17:12:18.974Z,24.03
2022-12-16T17:15:04.469Z,23.47
2022-12-16T17:17:49.986Z,23.80
2022-12-16T17:20:36.211Z,22.80
2022-12-16T17:23:23.176Z,24.60
2022-12-16T17:26:08.608Z,25.07
2022-12-16T17:28:53.984Z,24.37
2022-12-16T17:31:39.393Z,21.80
2022-12-16T17:34:24.542Z,22.93
2022-12-16T17:37:09.922Z,24.87
2022-12-16T17:39:55.341Z,25.13
2022-12-16T17:42:46.257Z,23.97
2022-12-16T17:45:32.041Z,23.60
2022-12-16T17:48:17.639Z,23.53
2022-12-16T17:51:04.363Z,22.17
2022-12-16T17:53:52.517Z,23.83
2022-12-16T17:56:41.031Z,25.57
2022-12-16T17:59:28.184Z,28.13
2022-12-16T18:02:13.861Z,29.63
2022-12-16T18:04:59.312Z,30.53
2022-12-16T18:07:44.634Z,27.83
2022-12-16T18:10:30.158Z,26.50
2022-12-16T18:13:15.745Z,30.10
2022-12-16T18:16:00.846Z,27.23
2022-12-16T18:18:47.173Z,26.37
2022-12-16T18:21:33.187Z,27.27
2022-12-16T18:24:18.635Z,24.77
2022-12-16T18:27:04.232Z,23.97
2022-12-16T18:29:49.618Z,24.53
2022-12-16T18:32:35.582Z,24.40
2022-12-16T18:35:22.569Z,25.17
2022-12-16T18:38:11.010Z,23.70
2022-12-16T18:40:58.674Z,24.03
2022-12-16T18:43:44.270Z,24.70
2022-12-16T18:46:29.788Z,22.83
2022-12-16T18:49:15.200Z,20.70
2022-12-16T18:52:00.542Z,22.77
2022-12-16T18:54:45.794Z,26.90
2022-12-16T18:57:36.400Z,27.03
2022-12-16T19:00:25.160Z,33.03
2022-12-16T19:03:10.595Z,32.40
2022-12-16T19:05:55.990Z,31.43
2022-12-16T19:08:41.785Z,32.40
2022-12-16T19:11:28.155Z,32.73
2022-12-16T19:14:13.579Z,30.23
2022-12-16T19:16:59.095Z,25.83
2022-12-16T19:19:44.529Z,27.93
2022-12-16T19:22:29.963Z,24.90
2022-12-16T19:25:15.354Z,24.13
2022-12-16T19:28:00.849Z,21.00
2022-12-16T19:30:46.321Z,21.93
2022-12-16T19:33:33.207Z,21.33
2022-12-16T19:36:18.882Z,20.73
2022-12-16T19:39:04.204Z,22.23
2022-12-16T19:41:50.240Z,22.13
2022-12-16T19:44:35.773Z,21.87
2022-12-16T19:47:20.950Z,21.10
2022-12-16T19:50:26.301Z,20.40
2022-12-16T19:53:12.266Z,20.47
2022-12-16T19:55:57.330Z,20.90
2022-12-16T19:58:42.981Z,21.40
2022-12-16T20:01:28.576Z,21.30
2022-12-16T20:04:14.014Z,21.47
2022-12-16T20:06:59.623Z,22.33
2022-12-16T20:09:45.082Z,22.37
2022-12-16T20:12:30.687Z,23.13
2022-12-16T20:15:16.169Z,21.57
2022-12-16T20:18:01.649Z,20.77
2022-12-16T20:20:47.241Z,20.27
2022-12-16T20:23:32.657Z,20.20
2022-12-16T20:26:20.210Z,19.50
2022-12-16T20:29:06.767Z,19.37
2022-12-16T20:31:52.516Z,20.73
2022-12-16T20:34:41.426Z,19.97
2022-12-16T20:37:27.113Z,20.40
2022-12-16T20:40:12.351Z,20.80
2022-12-16T20:42:57.901Z,19.10
2022-12-16T20:45:43.293Z,20.87
2022-12-16T20:48:32.570Z,21.27
2022-12-16T20:54:28.442Z,21.70
2022-12-16T20:57:13.825Z,21.37
2022-12-16T20:59:59.430Z,21.83
2022-12-16T21:02:44.838Z,21.50
2022-12-16T21:05:30.397Z,20.37
2022-12-16T21:08:15.770Z,21.10
2022-12-16T21:11:01.161Z,20.53
2022-12-16T21:13:46.920Z,20.27
2022-12-16T21:16:32.272Z,20.70
2022-12-16T21:19:17.727Z,19.57
2022-12-16T21:22:03.202Z,18.60
2022-12-16T21:24:48.737Z,18.77
2022-12-16T21:27:34.214Z,18.63
2022-12-16T21:30:19.776Z,18.37
2022-12-16T21:33:05.115Z,19.73
2022-12-16T21:35:50.559Z,20.07
2022-12-16T21:38:36.898Z,20.27
2022-12-16T21:41:22.405Z,20.53
2022-12-16T21:44:09.669Z,20.60
2022-12-16T21:46:55.262Z,18.47
2022-12-16T21:49:40.691Z,18.80
2022-12-16T21:52:26.294Z,17.67
2022-12-16T21:55:11.743Z,19.97
2022-12-16T21:57:57.297Z,18.33
2022-12-16T22:00:42.608Z,17.43
2022-12-16T22:03:27.950Z,17.07
2022-12-16T22:06:17.552Z,17.37
2022-12-16T22:09:03.057Z,14.93
2022-12-16T22:11:48.491Z,15.43
2022-12-16T22:14:33.974Z,15.83
2022-12-16T22:17:19.197Z,17.37
2022-12-16T22:20:04.722Z,17.20
2022-12-16T22:22:50.211Z,17.47
2022-12-16T22:25:35.710Z,15.63
2022-12-16T22:28:21.080Z,17.00
2022-12-16T22:31:15.793Z,16.80
2022-12-16T22:34:01.840Z,16.17
2022-12-16T22:36:47.455Z,15.97
2022-12-16T22:39:32.914Z,16.70
2022-12-16T22:42:18.427Z,18.47
2022-12-16T22:45:03.940Z,17.87
2022-12-16T22:47:49.966Z,18.23
2022-12-16T22:50:35.607Z,18.00
2022-12-16T22:53:20.913Z,18.20
2022-12-16T22:56:13.535Z,16.73
2022-12-16T22:58:59.363Z,14.90
2022-12-16T23:01:44.892Z,15.00
2022-12-16T23:04:30.334Z,15.00
2022-12-16T23:07:15.749Z,14.37
2022-12-16T23:10:01.140Z,14.40
2022-12-16T23:12:46.511Z,15.23
2022-12-16T23:15:32.543Z,15.90
2022-12-16T23:18:18.422Z,15.73
2022-12-16T23:21:07.952Z,16.20
2022-12-16T23:23:53.563Z,15.93
2022-12-16T23:26:42.160Z,15.57
2022-12-16T23:29:27.608Z,15.10
2022-12-16T23:32:13.252Z,15.20
2022-12-16T23:34:58.662Z,14.90
2022-12-16T23:37:44.074Z,14.53
2022-12-16T23:40:29.479Z,14.50
2022-12-16T23:43:14.816Z,15.40
2022-12-16T23:46:01.957Z,14.40
2022-12-16T23:48:47.115Z,14.73
2022-12-16T23:51:32.656Z,13.77
2022-12-16T23:54:18.116Z,13.40
2022-12-16T23:57:03.485Z,14.53
2022-12-16T23:59:49.007Z,13.63
